sensor_id;sensor_type;location;lat;lon;timestamp;pressure;altitude;pressure_sealevel;temperature;humidity
69257;BME280;56376;53.356;-1.748;2022-12-29T00:01:27;96580.94;;;7.34;100.00
69257;BME280;56376;53.356;-1.748;2022-12-29T00:03:53;96598.53;;;7.31;100.00
69257;BME280;56376;53.356;-1.748;2022-12-29T00:06:18;96599.13;;;7.34;100.00
69257;BME280;56376;53.356;-1.748;2022-12-29T00:08:43;96613.97;;;7.32;100.00
69257;BME280;56376;53.356;-1.748;2022-12-29T00:11:18;96608.06;;;7.30;100.00
69257;BME280;56376;53.356;-1.748;2022-12-29T00:13:43;96596.25;;;7.26;100.00
69257;BME280;56376;53.356;-1.748;2022-12-29T00:16:28;96601.00;;;7.32;100.00
69257;BME280;56376;53.356;-1.748;2022-12-29T00:18:54;96576.19;;;7.28;100.00
69257;BME280;56376;53.356;-1.748;2022-12-29T00:21:20;96583.03;;;7.29;100.00
69257;BME280;56376;53.356;-1.748;2022-12-29T00:24:06;96582.31;;;7.27;100.00
69257;BME280;56376;53.356;-1.748;2022-12-29T00:26:58;96567.78;;;7.25;100.00
69257;BME280;56376;53.356;-1.748;2022-12-29T00:29:43;96565.31;;;7.23;100.00
69257;BME280;56376;53.356;-1.748;2022-12-29T00:32:26;96570.50;;;7.23;100.00
69257;BME280;56376;53.356;-1.748;2022-12-29T00:35:17;96566.22;;;7.22;100.00
69257;BME280;56376;53.356;-1.748;2022-12-29T00:37:47;96555.97;;;7.21;100.00
69257;BME280;56376;53.356;-1.748;2022-12-29T00:40:31;96545.69;;;7.19;100.00
69257;BME280;56376;53.356;-1.748;2022-12-29T00:43:15;96551.78;;;7.18;100.00
69257;BME280;56376;53.356;-1.748;2022-12-29T00:45:59;96572.38;;;7.21;100.00
69257;BME280;56376;53.356;-1.748;2022-12-29T00:48:24;96576.09;;;7.17;100.00
69257;BME280;56376;53.356;-1.748;2022-12-29T00:51:08;96582.53;;;7.24;100.00
69257;BME280;56376;53.356;-1.748;2022-12-29T00:53:34;96580.16;;;7.21;100.00
69257;BME280;56376;53.356;-1.748;2022-12-29T00:56:00;96587.22;;;7.19;100.00
69257;BME280;56376;53.356;-1.748;2022-12-29T00:58:29;96583.91;;;7.17;100.00
69257;BME280;56376;53.356;-1.748;2022-12-29T01:01:06;96576.94;;;7.18;100.00
69257;BME280;56376;53.356;-1.748;2022-12-29T01:03:33;96571.13;;;7.14;100.00
69257;BME280;56376;53.356;-1.748;2022-12-29T01:06:03;96570.19;;;7.15;100.00
69257;BME280;56376;53.356;-1.748;2022-12-29T01:08:29;96571.13;;;7.14;100.00
69257;BME280;56376;53.356;-1.748;2022-12-29T01:11:05;96574.78;;;7.11;100.00
69257;BME280;56376;53.356;-1.748;2022-12-29T01:13:31;96598.66;;;7.17;100.00
69257;BME280;56376;53.356;-1.748;2022-12-29T01:15:57;96566.66;;;7.16;100.00
69257;BME280;56376;53.356;-1.748;2022-12-29T01:18:24;96576.94;;;7.18;100.00
69257;BME280;56376;53.356;-1.748;2022-12-29T01:20:50;96580.47;;;7.17;100.00
69257;BME280;56376;53.356;-1.748;2022-12-29T01:23:15;96573.50;;;7.17;100.00
69257;BME280;56376;53.356;-1.748;2022-12-29T01:25:41;96577.75;;;7.18;100.00
69257;BME280;56376;53.356;-1.748;2022-12-29T01:28:06;96573.50;;;7.17;100.00
69257;BME280;56376;53.356;-1.748;2022-12-29T01:30:34;96575.16;;;7.18;100.00
69257;BME280;56376;53.356;-1.748;2022-12-29T01:33:00;96589.00;;;7.19;100.00
69257;BME280;56376;53.356;-1.748;2022-12-29T01:35:26;96586.59;;;7.15;100.00
69257;BME280;56376;53.356;-1.748;2022-12-29T01:37:51;96595.41;;;7.13;100.00
69257;BME280;56376;53.356;-1.748;2022-12-29T01:40:16;96589.53;;;7.11;100.00
69257;BME280;56376;53.356;-1.748;2022-12-29T01:42:42;96606.97;;;7.09;100.00
69257;BME280;56376;53.356;-1.748;2022-12-29T01:45:12;96619.81;;;7.10;100.00
69257;BME280;56376;53.356;-1.748;2022-12-29T01:47:43;96617.56;;;7.06;100.00
69257;BME280;56376;53.356;-1.748;2022-12-29T01:50:24;96620.34;;;7.03;100.00
69257;BME280;56376;53.356;-1.748;2022-12-29T01:53:18;96622.41;;;6.98;100.00
69257;BME280;56376;53.356;-1.748;2022-12-29T01:56:07;96636.34;;;6.97;100.00
69257;BME280;56376;53.356;-1.748;2022-12-29T01:58:37;96642.78;;;6.91;100.00
69257;BME280;56376;53.356;-1.748;2022-12-29T02:01:04;96660.81;;;6.92;100.00
69257;BME280;56376;53.356;-1.748;2022-12-29T02:03:30;96698.63;;;6.97;100.00
69257;BME280;56376;53.356;-1.748;2022-12-29T02:06:03;96694.66;;;6.65;100.00
69257;BME280;56376;53.356;-1.748;2022-12-29T02:08:32;96698.16;;;6.37;100.00
69257;BME280;56376;53.356;-1.748;2022-12-29T02:10:59;96711.78;;;6.14;100.00
69257;BME280;56376;53.356;-1.748;2022-12-29T02:13:26;96691.19;;;5.83;100.00
69257;BME280;56376;53.356;-1.748;2022-12-29T02:16:14;96716.63;;;5.77;100.00
69257;BME280;56376;53.356;-1.748;2022-12-29T02:18:56;96724.69;;;5.72;100.00
69257;BME280;56376;53.356;-1.748;2022-12-29T02:32:07;96716.13;;;5.57;100.00
69257;BME280;56376;53.356;-1.748;2022-12-29T02:34:54;96716.94;;;5.58;100.00
69257;BME280;56376;53.356;-1.748;2022-12-29T02:37:29;96718.50;;;5.60;100.00
69257;BME280;56376;53.356;-1.748;2022-12-29T02:42:59;96698.25;;;5.67;100.00
69257;BME280;56376;53.356;-1.748;2022-12-29T02:45:31;96699.16;;;5.66;100.00
69257;BME280;56376;53.356;-1.748;2022-12-29T02:48:20;96703.25;;;5.70;100.00
69257;BME280;56376;53.356;-1.748;2022-12-29T02:51:02;96706.56;;;5.72;100.00
69257;BME280;56376;53.356;-1.748;2022-12-29T02:53:29;96718.50;;;5.75;100.00
69257;BME280;56376;53.356;-1.748;2022-12-29T02:56:15;96715.81;;;5.76;100.00
69257;BME280;56376;53.356;-1.748;2022-12-29T02:58:40;96718.31;;;5.78;100.00
69257;BME280;56376;53.356;-1.748;2022-12-29T03:06:43;96710.16;;;5.84;100.00
69257;BME280;56376;53.356;-1.748;2022-12-29T03:09:36;96714.41;;;5.85;100.00
69257;BME280;56376;53.356;-1.748;2022-12-29T03:17:49;96714.13;;;5.90;100.00
69257;BME280;56376;53.356;-1.748;2022-12-29T03:20:24;96705.72;;;5.86;100.00
69257;BME280;56376;53.356;-1.748;2022-12-29T03:22:56;96707.34;;;5.87;100.00
69257;BME280;56376;53.356;-1.748;2022-12-29T03:25:30;96721.91;;;5.90;100.00
69257;BME280;56376;53.356;-1.748;2022-12-29T03:28:00;96709.03;;;5.88;100.00
69257;BME280;56376;53.356;-1.748;2022-12-29T03:30:28;96716.53;;;5.93;100.00
69257;BME280;56376;53.356;-1.748;2022-12-29T03:32:57;96711.25;;;5.94;100.00
69257;BME280;56376;53.356;-1.748;2022-12-29T03:35:26;96717.19;;;5.96;100.00
69257;BME280;56376;53.356;-1.748;2022-12-29T03:37:54;96721.25;;;6.00;100.00
69257;BME280;56376;53.356;-1.748;2022-12-29T03:40:22;96728.81;;;5.89;100.00
69257;BME280;56376;53.356;-1.748;2022-12-29T03:42:49;96726.06;;;5.92;100.00
69257;BME280;56376;53.356;-1.748;2022-12-29T03:45:14;96728.94;;;5.88;100.00
69257;BME280;56376;53.356;-1.748;2022-12-29T03:47:40;96726.97;;;5.91;100.00
69257;BME280;56376;53.356;-1.748;2022-12-29T03:50:08;96734.88;;;5.90;100.00
69257;BME280;56376;53.356;-1.748;2022-12-29T03:52:34;96733.38;;;5.85;100.00
69257;BME280;56376;53.356;-1.748;2022-12-29T03:54:59;96743.75;;;5.85;100.00
69257;BME280;56376;53.356;-1.748;2022-12-29T03:57:25;96740.31;;;5.85;100.00
69257;BME280;56376;53.356;-1.748;2022-12-29T03:59:50;96747.16;;;5.86;100.00
69257;BME280;56376;53.356;-1.748;2022-12-29T04:02:16;96745.31;;;5.88;100.00
69257;BME280;56376;53.356;-1.748;2022-12-29T04:04:41;96755.66;;;5.88;100.00
69257;BME280;56376;53.356;-1.748;2022-12-29T04:07:06;96747.81;;;5.90;100.00
69257;BME280;56376;53.356;-1.748;2022-12-29T04:09:32;96757.81;;;5.96;100.00
69257;BME280;56376;53.356;-1.748;2022-12-29T04:11:57;96755.31;;;5.94;100.00
69257;BME280;56376;53.356;-1.748;2022-12-29T04:14:23;96760.41;;;5.96;100.00
69257;BME280;56376;53.356;-1.748;2022-12-29T04:16:48;96759.00;;;5.90;100.00
69257;BME280;56376;53.356;-1.748;2022-12-29T04:19:13;96766.53;;;5.95;100.00
69257;BME280;56376;53.356;-1.748;2022-12-29T04:21:39;96780.19;;;5.97;100.00
69257;BME280;56376;53.356;-1.748;2022-12-29T04:24:05;96789.84;;;5.95;100.00
69257;BME280;56376;53.356;-1.748;2022-12-29T04:26:32;96799.28;;;5.96;100.00
69257;BME280;56376;53.356;-1.748;2022-12-29T04:28:57;96795.84;;;5.95;100.00
69257;BME280;56376;53.356;-1.748;2022-12-29T04:31:22;96817.41;;;5.96;100.00
69257;BME280;56376;53.356;-1.748;2022-12-29T04:33:48;96805.09;;;5.99;100.00
69257;BME280;56376;53.356;-1.748;2022-12-29T04:36:13;96817.34;;;5.97;100.00
69257;BME280;56376;53.356;-1.748;2022-12-29T04:38:39;96833.13;;;5.93;100.00
69257;BME280;56376;53.356;-1.748;2022-12-29T04:41:04;96829.53;;;5.95;100.00
69257;BME280;56376;53.356;-1.748;2022-12-29T04:43:30;96835.91;;;5.90;100.00
69257;BME280;56376;53.356;-1.748;2022-12-29T04:45:55;96843.56;;;5.91;100.00
69257;BME280;56376;53.356;-1.748;2022-12-29T04:48:21;96842.66;;;5.92;100.00
69257;BME280;56376;53.356;-1.748;2022-12-29T04:50:48;96838.38;;;5.91;100.00
69257;BME280;56376;53.356;-1.748;2022-12-29T04:53:15;96848.94;;;5.88;100.00
69257;BME280;56376;53.356;-1.748;2022-12-29T04:55:41;96848.94;;;5.88;100.00
69257;BME280;56376;53.356;-1.748;2022-12-29T04:58:06;96842.19;;;5.85;100.00
69257;BME280;56376;53.356;-1.748;2022-12-29T05:00:31;96864.22;;;5.93;100.00
69257;BME280;56376;53.356;-1.748;2022-12-29T05:02:57;96872.06;;;5.91;100.00
69257;BME280;56376;53.356;-1.748;2022-12-29T05:05:22;96881.69;;;5.89;100.00
69257;BME280;56376;53.356;-1.748;2022-12-29T05:07:48;96889.38;;;5.91;100.00
69257;BME280;56376;53.356;-1.748;2022-12-29T05:10:13;96872.16;;;5.90;100.00
69257;BME280;56376;53.356;-1.748;2022-12-29T05:12:38;96881.69;;;5.89;100.00
69257;BME280;56376;53.356;-1.748;2022-12-29T05:15:06;96880.84;;;5.89;100.00
69257;BME280;56376;53.356;-1.748;2022-12-29T05:17:32;96899.72;;;5.91;100.00
69257;BME280;56376;53.356;-1.748;2022-12-29T05:19:58;96897.34;;;5.88;100.00
69257;BME280;56376;53.356;-1.748;2022-12-29T05:22:24;96909.16;;;5.92;100.00
69257;BME280;56376;53.356;-1.748;2022-12-29T05:24:50;96924.72;;;5.92;100.00
69257;BME280;56376;53.356;-1.748;2022-12-29T05:27:15;96916.09;;;5.91;100.00
69257;BME280;56376;53.356;-1.748;2022-12-29T05:29:48;96925.47;;;5.94;100.00
69257;BME280;56376;53.356;-1.748;2022-12-29T05:32:16;96933.59;;;5.88;100.00
69257;BME280;56376;53.356;-1.748;2022-12-29T05:34:42;96938.09;;;5.84;100.00
69257;BME280;56376;53.356;-1.748;2022-12-29T05:37:08;96935.53;;;5.84;100.00
69257;BME280;56376;53.356;-1.748;2022-12-29T05:39:33;96944.03;;;5.86;100.00
69257;BME280;56376;53.356;-1.748;2022-12-29T05:41:59;96951.88;;;5.84;100.00
69257;BME280;56376;53.356;-1.748;2022-12-29T05:44:24;96950.16;;;5.85;100.00
69257;BME280;56376;53.356;-1.748;2022-12-29T05:46:49;96957.06;;;5.84;100.00
69257;BME280;56376;53.356;-1.748;2022-12-29T05:49:15;96965.84;;;5.82;100.00
69257;BME280;56376;53.356;-1.748;2022-12-29T05:51:41;96967.53;;;5.83;100.00
69257;BME280;56376;53.356;-1.748;2022-12-29T05:54:06;96981.69;;;5.77;100.00
69257;BME280;56376;53.356;-1.748;2022-12-29T05:56:32;96965.13;;;5.80;100.00
69257;BME280;56376;53.356;-1.748;2022-12-29T05:58:57;96972.34;;;5.75;100.00
69257;BME280;56376;53.356;-1.748;2022-12-29T06:01:23;96990.53;;;5.73;100.00
69257;BME280;56376;53.356;-1.748;2022-12-29T06:03:48;97000.06;;;5.73;100.00
69257;BME280;56376;53.356;-1.748;2022-12-29T06:06:14;97009.63;;;5.72;100.00
69257;BME280;56376;53.356;-1.748;2022-12-29T06:08:39;97013.03;;;5.73;100.00
69257;BME280;56376;53.356;-1.748;2022-12-29T06:11:04;97005.59;;;5.67;100.00
69257;BME280;56376;53.356;-1.748;2022-12-29T06:13:30;97000.59;;;5.63;100.00
69257;BME280;56376;53.356;-1.748;2022-12-29T06:15:55;97023.72;;;5.67;100.00
69257;BME280;56376;53.356;-1.748;2022-12-29T06:18:21;97020.22;;;5.68;100.00
69257;BME280;56376;53.356;-1.748;2022-12-29T06:20:46;97029.75;;;5.67;100.00
69257;BME280;56376;53.356;-1.748;2022-12-29T06:23:12;97021.88;;;5.69;100.00
69257;BME280;56376;53.356;-1.748;2022-12-29T06:25:38;97030.66;;;5.66;100.00
69257;BME280;56376;53.356;-1.748;2022-12-29T06:28:07;97040.00;;;5.69;100.00
69257;BME280;56376;53.356;-1.748;2022-12-29T06:30:32;97030.59;;;5.68;100.00
69257;BME280;56376;53.356;-1.748;2022-12-29T06:32:59;97056.66;;;5.64;100.00
69257;BME280;56376;53.356;-1.748;2022-12-29T06:35:25;97048.13;;;5.62;100.00
69257;BME280;56376;53.356;-1.748;2022-12-29T06:37:50;97060.97;;;5.64;100.00
69257;BME280;56376;53.356;-1.748;2022-12-29T06:40:16;97060.25;;;5.62;100.00
69257;BME280;56376;53.356;-1.748;2022-12-29T06:42:41;97063.75;;;5.61;100.00
69257;BME280;56376;53.356;-1.748;2022-12-29T06:45:07;97057.81;;;5.59;100.00
69257;BME280;56376;53.356;-1.748;2022-12-29T06:47:33;97058.81;;;5.56;100.00
69257;BME280;56376;53.356;-1.748;2022-12-29T06:49:59;97071.78;;;5.56;100.00
69257;BME280;56376;53.356;-1.748;2022-12-29T06:52:24;97064.88;;;5.57;100.00
69257;BME280;56376;53.356;-1.748;2022-12-29T06:54:50;97081.97;;;5.59;100.00
69257;BME280;56376;53.356;-1.748;2022-12-29T06:57:15;97075.94;;;5.59;100.00
69257;BME280;56376;53.356;-1.748;2022-12-29T06:59:41;97088.16;;;5.57;100.00
69257;BME280;56376;53.356;-1.748;2022-12-29T07:02:06;97085.47;;;5.58;100.00
69257;BME280;56376;53.356;-1.748;2022-12-29T07:04:32;97095.84;;;5.58;100.00
69257;BME280;56376;53.356;-1.748;2022-12-29T07:06:57;97110.38;;;5.61;100.00
69257;BME280;56376;53.356;-1.748;2022-12-29T07:09:23;97084.66;;;5.58;100.00
69257;BME280;56376;53.356;-1.748;2022-12-29T07:11:48;97096.59;;;5.60;100.00
69257;BME280;56376;53.356;-1.748;2022-12-29T07:14:14;97113.88;;;5.60;100.00
69257;BME280;56376;53.356;-1.748;2022-12-29T07:16:39;97123.31;;;5.61;100.00
69257;BME280;56376;53.356;-1.748;2022-12-29T07:19:05;97127.59;;;5.62;100.00
69257;BME280;56376;53.356;-1.748;2022-12-29T07:21:30;97130.25;;;5.60;100.00
69257;BME280;56376;53.356;-1.748;2022-12-29T07:23:56;97137.44;;;5.55;100.00
69257;BME280;56376;53.356;-1.748;2022-12-29T07:26:21;97123.56;;;5.56;100.00
69257;BME280;56376;53.356;-1.748;2022-12-29T07:28:47;97135.75;;;5.54;100.00
69257;BME280;56376;53.356;-1.748;2022-12-29T07:31:15;97145.38;;;5.52;100.00
69257;BME280;56376;53.356;-1.748;2022-12-29T07:33:42;97149.69;;;5.52;100.00
69257;BME280;56376;53.356;-1.748;2022-12-29T07:36:09;97155.81;;;5.51;100.00
69257;BME280;56376;53.356;-1.748;2022-12-29T07:38:34;97167.16;;;5.48;100.00
69257;BME280;56376;53.356;-1.748;2022-12-29T07:41:00;97182.69;;;5.48;100.00
69257;BME280;56376;53.356;-1.748;2022-12-29T07:43:25;97171.59;;;5.46;100.00
69257;BME280;56376;53.356;-1.748;2022-12-29T07:45:51;97184.47;;;5.48;100.00
69257;BME280;56376;53.356;-1.748;2022-12-29T07:48:19;97180.53;;;5.56;100.00
69257;BME280;56376;53.356;-1.748;2022-12-29T07:50:45;97191.81;;;5.55;100.00
69257;BME280;56376;53.356;-1.748;2022-12-29T07:53:14;97199.81;;;5.51;100.00
69257;BME280;56376;53.356;-1.748;2022-12-29T07:55:40;97217.03;;;5.52;100.00
69257;BME280;56376;53.356;-1.748;2022-12-29T07:58:05;97195.47;;;5.51;100.00
69257;BME280;56376;53.356;-1.748;2022-12-29T08:00:31;97212.13;;;5.47;100.00
69257;BME280;56376;53.356;-1.748;2022-12-29T08:02:56;97207.34;;;5.39;100.00
69257;BME280;56376;53.356;-1.748;2022-12-29T08:05:22;97214.25;;;5.39;100.00
69257;BME280;56376;53.356;-1.748;2022-12-29T08:07:47;97216.75;;;5.40;100.00
69257;BME280;56376;53.356;-1.748;2022-12-29T08:10:14;97222.59;;;5.44;100.00
69257;BME280;56376;53.356;-1.748;2022-12-29T08:12:40;97221.72;;;5.45;100.00
69257;BME280;56376;53.356;-1.748;2022-12-29T08:15:07;97224.28;;;5.45;100.00
69257;BME280;56376;53.356;-1.748;2022-12-29T08:17:33;97235.66;;;5.42;100.00
69257;BME280;56376;53.356;-1.748;2022-12-29T08:19:59;97231.31;;;5.43;100.00
69257;BME280;56376;53.356;-1.748;2022-12-29T08:22:24;97244.91;;;5.47;100.00
69257;BME280;56376;53.356;-1.748;2022-12-29T08:24:50;97251.84;;;5.46;100.00
69257;BME280;56376;53.356;-1.748;2022-12-29T08:27:16;97255.97;;;5.50;100.00
69257;BME280;56376;53.356;-1.748;2022-12-29T08:29:42;97253.69;;;5.44;100.00
69257;BME280;56376;53.356;-1.748;2022-12-29T08:32:08;97274.25;;;5.47;100.00
69257;BME280;56376;53.356;-1.748;2022-12-29T08:34:33;97264.78;;;5.46;100.00
69257;BME280;56376;53.356;-1.748;2022-12-29T08:36:59;97266.50;;;5.47;100.00
69257;BME280;56376;53.356;-1.748;2022-12-29T08:39:24;97271.66;;;5.47;100.00
69257;BME280;56376;53.356;-1.748;2022-12-29T08:41:50;97269.91;;;5.48;100.00
69257;BME280;56376;53.356;-1.748;2022-12-29T08:44:16;97278.75;;;5.43;100.00
69257;BME280;56376;53.356;-1.748;2022-12-29T08:46:41;97277.16;;;5.41;100.00
69257;BME280;56376;53.356;-1.748;2022-12-29T08:49:07;97286.34;;;5.47;100.00
69257;BME280;56376;53.356;-1.748;2022-12-29T08:51:33;97293.13;;;5.49;100.00
69257;BME280;56376;53.356;-1.748;2022-12-29T08:53:59;97288.03;;;5.48;100.00
69257;BME280;56376;53.356;-1.748;2022-12-29T08:56:24;97301.97;;;5.45;100.00
69257;BME280;56376;53.356;-1.748;2022-12-29T08:58:51;97304.56;;;5.45;100.00
69257;BME280;56376;53.356;-1.748;2022-12-29T09:01:17;97320.88;;;5.47;100.00
69257;BME280;56376;53.356;-1.748;2022-12-29T09:03:42;97321.69;;;5.48;100.00
69257;BME280;56376;53.356;-1.748;2022-12-29T09:06:08;97320.88;;;5.47;100.00
69257;BME280;56376;53.356;-1.748;2022-12-29T09:08:34;97339.22;;;5.42;100.00
69257;BME280;56376;53.356;-1.748;2022-12-29T09:11:12;97336.41;;;5.47;100.00
69257;BME280;56376;53.356;-1.748;2022-12-29T09:13:39;97338.28;;;5.43;100.00
69257;BME280;56376;53.356;-1.748;2022-12-29T09:16:05;97333.09;;;5.43;100.00
69257;BME280;56376;53.356;-1.748;2022-12-29T09:18:31;97340.81;;;5.45;100.00
69257;BME280;56376;53.356;-1.748;2022-12-29T09:21:03;97344.16;;;5.47;100.00
69257;BME280;56376;53.356;-1.748;2022-12-29T09:23:29;97335.78;;;5.42;100.00
69257;BME280;56376;53.356;-1.748;2022-12-29T09:25:55;97342.63;;;5.43;100.00
69257;BME280;56376;53.356;-1.748;2022-12-29T09:28:21;97347.81;;;5.43;100.00
69257;BME280;56376;53.356;-1.748;2022-12-29T09:30:48;97353.97;;;5.40;100.00
69257;BME280;56376;53.356;-1.748;2022-12-29T09:33:14;97362.69;;;5.39;100.00
69257;BME280;56376;53.356;-1.748;2022-12-29T09:35:43;97357.72;;;5.35;100.00
69257;BME280;56376;53.356;-1.748;2022-12-29T09:38:09;97349.84;;;5.36;100.00
69257;BME280;56376;53.356;-1.748;2022-12-29T09:40:35;97365.16;;;5.41;100.00
69257;BME280;56376;53.356;-1.748;2022-12-29T09:48:51;97384.59;;;5.32;100.00
69257;BME280;56376;53.356;-1.748;2022-12-29T09:51:22;97377.66;;;5.33;100.00
69257;BME280;56376;53.356;-1.748;2022-12-29T09:53:53;97385.44;;;5.33;100.00
69257;BME280;56376;53.356;-1.748;2022-12-29T09:56:23;97391.38;;;5.35;100.00
69257;BME280;56376;53.356;-1.748;2022-12-29T09:58:56;97380.41;;;5.30;100.00
69257;BME280;56376;53.356;-1.748;2022-12-29T10:01:28;97400.97;;;5.33;100.00
69257;BME280;56376;53.356;-1.748;2022-12-29T10:03:56;97407.06;;;5.32;100.00
69257;BME280;56376;53.356;-1.748;2022-12-29T10:06:26;97417.31;;;5.33;100.00
69257;BME280;56376;53.356;-1.748;2022-12-29T10:09:17;97414.69;;;5.35;100.00
69257;BME280;56376;53.356;-1.748;2022-12-29T10:25:00;97427.91;;;5.46;100.00
69257;BME280;56376;53.356;-1.748;2022-12-29T10:27:31;97427.16;;;5.44;100.00
69257;BME280;56376;53.356;-1.748;2022-12-29T10:29:59;97422.75;;;5.46;100.00
69257;BME280;56376;53.356;-1.748;2022-12-29T10:32:54;97430.28;;;5.51;100.00
69257;BME280;56376;53.356;-1.748;2022-12-29T10:35:23;97430.97;;;5.54;100.00
69257;BME280;56376;53.356;-1.748;2022-12-29T10:40:31;97446.28;;;5.59;100.00
69257;BME280;56376;53.356;-1.748;2022-12-29T10:43:02;97451.47;;;5.59;100.00
69257;BME280;56376;53.356;-1.748;2022-12-29T10:45:31;97438.50;;;5.59;100.00
69257;BME280;56376;53.356;-1.748;2022-12-29T10:48:03;97449.63;;;5.61;100.00
69257;BME280;56376;53.356;-1.748;2022-12-29T10:50:30;97443.47;;;5.63;100.00
69257;BME280;56376;53.356;-1.748;2022-12-29T10:52:58;97446.97;;;5.62;100.00
69257;BME280;56376;53.356;-1.748;2022-12-29T10:55:28;97438.44;;;5.60;100.00
69257;BME280;56376;53.356;-1.748;2022-12-29T10:58:02;97458.94;;;5.65;100.00
69257;BME280;56376;53.356;-1.748;2022-12-29T11:00:30;97441.59;;;5.67;100.00
69257;BME280;56376;53.356;-1.748;2022-12-29T11:08:36;97457.94;;;5.68;100.00
69257;BME280;56376;53.356;-1.748;2022-12-29T11:11:05;97458.84;;;5.67;100.00
69257;BME280;56376;53.356;-1.748;2022-12-29T11:13:47;97467.47;;;5.67;100.00
69257;BME280;56376;53.356;-1.748;2022-12-29T11:16:12;97470.97;;;5.66;100.00
69257;BME280;56376;53.356;-1.748;2022-12-29T11:18:40;97468.31;;;5.68;100.00
69257;BME280;56376;53.356;-1.748;2022-12-29T11:21:23;97474.31;;;5.68;100.00
69257;BME280;56376;53.356;-1.748;2022-12-29T11:24:04;97487.28;;;5.68;100.00
69257;BME280;56376;53.356;-1.748;2022-12-29T11:26:31;97479.50;;;5.68;100.00
69257;BME280;56376;53.356;-1.748;2022-12-29T11:31:43;97476.16;;;5.66;100.00
69257;BME280;56376;53.356;-1.748;2022-12-29T11:34:08;97472.72;;;5.66;100.00
69257;BME280;56376;53.356;-1.748;2022-12-29T11:36:41;97467.47;;;5.67;100.00
69257;BME280;56376;53.356;-1.748;2022-12-29T11:39:28;97466.50;;;5.70;100.00
69257;BME280;56376;53.356;-1.748;2022-12-29T11:41:54;97462.97;;;5.71;100.00
69257;BME280;56376;53.356;-1.748;2022-12-29T11:44:20;97459.41;;;5.73;100.00
69257;BME280;56376;53.356;-1.748;2022-12-29T11:46:48;97479.91;;;5.78;100.00
69257;BME280;56376;53.356;-1.748;2022-12-29T11:49:20;97471.91;;;5.82;100.00
69257;BME280;56376;53.356;-1.748;2022-12-29T11:51:48;97477.91;;;5.83;100.00
69257;BME280;56376;53.356;-1.748;2022-12-29T11:54:25;97478.13;;;5.78;100.00
69257;BME280;56376;53.356;-1.748;2022-12-29T11:56:52;97482.31;;;5.81;100.00
69257;BME280;56376;53.356;-1.748;2022-12-29T11:59:37;97478.06;;;5.80;100.00
69257;BME280;56376;53.356;-1.748;2022-12-29T12:02:24;97483.88;;;5.85;100.00
69257;BME280;56376;53.356;-1.748;2022-12-29T12:04:58;97468.16;;;5.88;100.00
69257;BME280;56376;53.356;-1.748;2022-12-29T12:07:47;97465.34;;;5.93;100.00
69257;BME280;56376;53.356;-1.748;2022-12-29T12:10:46;97480.59;;;5.99;100.00
69257;BME280;56376;53.356;-1.748;2022-12-29T12:13:17;97479.78;;;5.98;100.00
69257;BME280;56376;53.356;-1.748;2022-12-29T12:18:51;97475.13;;;6.05;100.00
69257;BME280;56376;53.356;-1.748;2022-12-29T12:21:34;97486.09;;;6.10;100.00
69257;BME280;56376;53.356;-1.748;2022-12-29T12:24:34;97475.03;;;6.06;100.00
69257;BME280;56376;53.356;-1.748;2022-12-29T12:27:20;97483.50;;;6.10;100.00
69257;BME280;56376;53.356;-1.748;2022-12-29T12:29:53;97490.34;;;6.11;100.00
69257;BME280;56376;53.356;-1.748;2022-12-29T12:34:51;97495.53;;;6.11;100.00
69257;BME280;56376;53.356;-1.748;2022-12-29T12:37:48;97502.31;;;6.14;100.00
69257;BME280;56376;53.356;-1.748;2022-12-29T13:00:17;97502.38;;;6.12;100.00
69257;BME280;56376;53.356;-1.748;2022-12-29T13:03:12;97507.56;;;6.12;100.00
69257;BME280;56376;53.356;-1.748;2022-12-29T13:05:46;97502.25;;;6.15;100.00
69257;BME280;56376;53.356;-1.748;2022-12-29T13:14:12;97498.72;;;6.16;100.00
69257;BME280;56376;53.356;-1.748;2022-12-29T13:19:46;97507.19;;;6.20;100.00
69257;BME280;56376;53.356;-1.748;2022-12-29T13:27:32;97506.06;;;6.25;100.00
69257;BME280;56376;53.356;-1.748;2022-12-29T13:32:53;97534.34;;;6.30;99.72
69257;BME280;56376;53.356;-1.748;2022-12-29T13:35:51;97531.75;;;6.30;99.24
69257;BME280;56376;53.356;-1.748;2022-12-29T13:38:46;97537.00;;;6.28;99.93
69257;BME280;56376;53.356;-1.748;2022-12-29T13:41:27;97540.44;;;6.29;100.00
69257;BME280;56376;53.356;-1.748;2022-12-29T13:43:54;97534.34;;;6.30;99.86
69257;BME280;56376;53.356;-1.748;2022-12-29T13:46:24;97537.78;;;6.31;99.33
69257;BME280;56376;53.356;-1.748;2022-12-29T13:48:56;97543.78;;;6.31;99.77
69257;BME280;56376;53.356;-1.748;2022-12-29T13:51:24;97540.25;;;6.32;99.85
69257;BME280;56376;53.356;-1.748;2022-12-29T13:57:10;97539.38;;;6.33;97.99
69257;BME280;56376;53.356;-1.748;2022-12-29T13:59:53;97555.00;;;6.32;98.11
69257;BME280;56376;53.356;-1.748;2022-12-29T14:05:32;97576.13;;;6.24;95.90
69257;BME280;56376;53.356;-1.748;2022-12-29T14:08:17;97577.06;;;6.23;96.17
69257;BME280;56376;53.356;-1.748;2022-12-29T14:10:51;97572.63;;;6.25;96.20
69257;BME280;56376;53.356;-1.748;2022-12-29T14:13:18;97575.06;;;6.28;96.88
69257;BME280;56376;53.356;-1.748;2022-12-29T14:15:50;97581.84;;;6.31;97.50
69257;BME280;56376;53.356;-1.748;2022-12-29T14:18:22;97577.50;;;6.31;97.56
69257;BME280;56376;53.356;-1.748;2022-12-29T14:23:37;97575.44;;;6.38;96.79
69257;BME280;56376;53.356;-1.748;2022-12-29T14:28:40;97604.81;;;6.38;97.43
69257;BME280;56376;53.356;-1.748;2022-12-29T14:33:41;97595.59;;;6.33;98.17
69257;BME280;56376;53.356;-1.748;2022-12-29T14:36:34;97609.38;;;6.33;98.63
69257;BME280;56376;53.356;-1.748;2022-12-29T14:38:59;97577.50;;;6.31;98.16
69257;BME280;56376;53.356;-1.748;2022-12-29T14:41:41;97608.84;;;6.26;97.16
69257;BME280;56376;53.356;-1.748;2022-12-29T14:46:46;97609.06;;;6.22;97.71
69257;BME280;56376;53.356;-1.748;2022-12-29T14:49:17;97609.16;;;6.20;97.55
69257;BME280;56376;53.356;-1.748;2022-12-29T14:51:43;97609.91;;;6.22;97.28
69257;BME280;56376;53.356;-1.748;2022-12-29T14:57:02;97633.75;;;6.12;98.61
69257;BME280;56376;53.356;-1.748;2022-12-29T14:59:29;97632.09;;;6.11;98.21
69257;BME280;56376;53.356;-1.748;2022-12-29T15:01:57;97642.81;;;6.03;98.74